createdAt,value
2022-10-17T00:02:14.224Z,95.48
2022-10-17T00:04:41.053Z,95.21
2022-10-17T00:07:07.777Z,94.48
2022-10-17T00:09:34.492Z,93.36
2022-10-17T00:12:02.652Z,92.36
2022-10-17T00:14:29.485Z,92.25
2022-10-17T00:16:56.250Z,91.73
2022-10-17T00:19:23.038Z,91.87
2022-10-17T00:21:49.828Z,92.95
2022-10-17T00:24:16.642Z,94.12
2022-10-17T00:26:43.346Z,95.17
2022-10-17T00:29:10.163Z,96.07
2022-10-17T00:31:36.990Z,96.77
2022-10-17T00:34:04.864Z,97.44
2022-10-17T00:36:31.625Z,97.66
2022-10-17T00:38:59.361Z,98.30
2022-10-17T00:41:30.211Z,98.42
2022-10-17T00:44:03.319Z,98.78
2022-10-17T00:46:35.361Z,99.65
2022-10-17T00:49:12.773Z,100.00
2022-10-17T00:51:49.134Z,100.00
2022-10-17T00:54:19.050Z,100.00
2022-10-17T00:56:47.945Z,100.00
2022-10-17T00:59:16.196Z,100.00
2022-10-17T01:01:51.306Z,99.94
2022-10-17T01:04:19.347Z,99.86
2022-10-17T01:06:46.127Z,99.45
2022-10-17T01:09:13.176Z,99.13
2022-10-17T01:11:52.097Z,99.31
2022-10-17T01:14:27.525Z,99.54
2022-10-17T01:17:04.505Z,99.93
2022-10-17T01:19:49.680Z,99.76
2022-10-17T01:22:59.607Z,100.00
2022-10-17T01:26:06.197Z,100.00
2022-10-17T01:28:54.945Z,100.00
2022-10-17T01:31:44.827Z,100.00
2022-10-17T01:34:33.689Z,99.56
2022-10-17T01:37:33.052Z,99.05
2022-10-17T01:40:14.912Z,98.19
2022-10-17T01:42:58.838Z,97.32
2022-10-17T01:45:37.512Z,96.81
2022-10-17T01:48:09.984Z,96.68
2022-10-17T01:50:43.638Z,95.75
2022-10-17T01:53:19.851Z,97.37
2022-10-17T01:55:48.999Z,99.44
2022-10-17T01:58:28.169Z,100.00
2022-10-17T02:00:56.706Z,100.00
2022-10-17T02:03:26.924Z,100.00
2022-10-17T02:05:53.833Z,100.00
2022-10-17T02:08:41.681Z,100.00
2022-10-17T02:11:21.500Z,100.00
2022-10-17T02:17:13.754Z,98.10
2022-10-17T02:20:10.610Z,97.73
2022-10-17T02:22:47.812Z,98.21
2022-10-17T02:25:53.010Z,99.09
2022-10-17T02:29:02.509Z,100.00
2022-10-17T02:31:38.189Z,100.00
2022-10-17T02:34:17.296Z,100.00
2022-10-17T02:36:52.281Z,100.00
2022-10-17T02:39:22.358Z,100.00
2022-10-17T02:41:52.839Z,100.00
2022-10-17T02:44:21.191Z,100.00
2022-10-17T02:46:56.675Z,100.00
2022-10-17T02:49:31.577Z,100.00
2022-10-17T02:52:11.758Z,100.00
2022-10-17T02:55:02.991Z,100.00
2022-10-17T02:57:32.431Z,100.00
2022-10-17T03:00:02.125Z,100.00
2022-10-17T03:02:38.432Z,100.00
2022-10-17T03:05:06.908Z,100.00
2022-10-17T03:07:33.620Z,100.00
2022-10-17T03:10:00.875Z,100.00
2022-10-17T03:12:28.012Z,100.00
2022-10-17T03:14:55.224Z,100.00
2022-10-17T03:17:21.980Z,100.00
2022-10-17T03:19:48.759Z,100.00
2022-10-17T03:22:15.451Z,100.00
2022-10-17T03:24:45.395Z,99.76
2022-10-17T03:27:12.200Z,99.31
2022-10-17T03:29:38.964Z,98.77
2022-10-17T03:32:07.671Z,98.05
2022-10-17T03:34:34.631Z,97.45
2022-10-17T03:37:01.771Z,96.55
2022-10-17T03:39:30.433Z,95.94
2022-10-17T03:41:57.666Z,95.63
2022-10-17T03:44:24.488Z,95.07
2022-10-17T03:46:51.297Z,94.53
2022-10-17T03:49:18.083Z,93.75
2022-10-17T03:51:44.795Z,94.19
2022-10-17T03:54:14.516Z,94.75
2022-10-17T03:56:41.558Z,95.02
2022-10-17T03:59:15.926Z,95.23
2022-10-17T04:01:49.454Z,95.57
2022-10-17T04:04:16.452Z,95.43
2022-10-17T04:06:44.387Z,95.41
2022-10-17T04:09:11.412Z,95.25
2022-10-17T04:11:52.785Z,95.10
2022-10-17T04:14:20.844Z,95.49
2022-10-17T04:16:47.752Z,97.05
2022-10-17T04:19:20.729Z,98.98
2022-10-17T04:21:47.951Z,99.61
2022-10-17T04:24:15.224Z,100.00
2022-10-17T04:26:50.094Z,100.00
2022-10-17T04:29:18.483Z,100.00
2022-10-17T04:31:48.029Z,100.00
2022-10-17T04:34:22.292Z,100.00
2022-10-17T04:36:49.104Z,100.00
2022-10-17T04:39:16.704Z,100.00
2022-10-17T04:41:43.767Z,100.00
2022-10-17T04:44:10.898Z,100.00
2022-10-17T04:46:41.836Z,100.00
2022-10-17T04:49:09.295Z,100.00
2022-10-17T04:51:41.147Z,100.00
2022-10-17T04:54:16.613Z,100.00
2022-10-17T04:56:47.339Z,100.00
2022-10-17T04:59:14.551Z,100.00
2022-10-17T05:01:43.837Z,100.00
2022-10-17T05:04:10.620Z,100.00
2022-10-17T05:06:37.865Z,100.00
2022-10-17T05:09:24.968Z,100.00
2022-10-17T05:11:52.406Z,100.00
2022-10-17T05:14:19.406Z,100.00
2022-10-17T05:16:46.215Z,100.00
2022-10-17T05:19:13.565Z,100.00
2022-10-17T05:21:46.054Z,100.00
2022-10-17T05:24:14.458Z,100.00
2022-10-17T05:26:41.211Z,98.52
2022-10-17T05:29:08.889Z,97.08
2022-10-17T05:31:39.796Z,96.02
2022-10-17T05:34:10.237Z,95.09
2022-10-17T05:36:40.313Z,95.67
2022-10-17T05:39:08.849Z,95.36
2022-10-17T05:41:37.248Z,94.68
2022-10-17T05:44:05.737Z,93.50
2022-10-17T05:46:42.149Z,89.96
2022-10-17T05:49:19.692Z,87.79
2022-10-17T05:51:59.348Z,87.30
2022-10-17T05:54:26.485Z,83.89
2022-10-17T05:56:54.576Z,82.54
2022-10-17T05:59:27.836Z,79.39
2022-10-17T06:02:06.784Z,76.73
2022-10-17T06:04:34.564Z,76.33
2022-10-17T06:07:02.534Z,77.15
2022-10-17T06:09:31.426Z,75.35
2022-10-17T06:11:58.305Z,73.47
2022-10-17T06:14:25.226Z,73.38
2022-10-17T06:16:56.050Z,73.20
2022-10-17T06:19:22.844Z,72.73
2022-10-17T06:21:49.649Z,68.12
2022-10-17T06:24:20.795Z,67.07
2022-10-17T06:26:49.848Z,66.98
2022-10-17T06:29:17.466Z,64.27
2022-10-17T06:31:50.335Z,63.20
2022-10-17T06:34:17.849Z,65.08
2022-10-17T06:36:45.751Z,59.09
2022-10-17T06:39:12.871Z,57.15
2022-10-17T06:41:49.323Z,55.46
2022-10-17T06:44:19.079Z,54.03
2022-10-17T06:47:10.962Z,53.95
2022-10-17T06:49:37.864Z,52.50
2022-10-17T06:52:23.574Z,53.44
2022-10-17T06:55:09.258Z,52.02
2022-10-17T06:57:47.105Z,52.78
2022-10-17T07:00:43.543Z,51.65
2022-10-17T07:03:12.278Z,50.52
2022-10-17T07:05:39.024Z,50.18
2022-10-17T07:08:06.177Z,49.21
2022-10-17T07:10:38.293Z,48.30
2022-10-17T07:13:06.995Z,47.50
2022-10-17T07:15:35.350Z,46.59
2022-10-17T07:18:02.164Z,46.26
2022-10-17T07:20:29.164Z,45.73
2022-10-17T07:22:56.227Z,44.98
2022-10-17T07:25:24.246Z,43.72
2022-10-17T07:27:55.527Z,43.81
2022-10-17T07:30:23.660Z,43.52
2022-10-17T07:32:59.480Z,42.88
2022-10-17T07:35:26.461Z,42.60
2022-10-17T07:37:53.509Z,42.29
2022-10-17T07:40:21.449Z,41.63
2022-10-17T07:42:48.401Z,41.64
2022-10-17T07:45:15.967Z,40.61
2022-10-17T07:47:43.958Z,40.13
2022-10-17T07:50:13.491Z,39.77
2022-10-17T07:52:40.342Z,39.34
2022-10-17T07:55:07.908Z,39.13
2022-10-17T07:57:34.765Z,39.19
2022-10-17T08:00:01.738Z,38.87
2022-10-17T08:02:28.925Z,38.31
2022-10-17T08:04:55.942Z,38.51
2022-10-17T08:07:25.536Z,38.24
2022-10-17T08:09:55.319Z,37.78
2022-10-17T08:12:22.350Z,36.83
2022-10-17T08:14:49.130Z,36.50
2022-10-17T08:17:15.912Z,36.20
2022-10-17T08:19:42.791Z,36.26
2022-10-17T08:22:09.529Z,36.41
2022-10-17T08:24:36.318Z,35.83
2022-10-17T08:27:04.027Z,35.83
2022-10-17T08:29:32.859Z,35.45
2022-10-17T08:32:01.439Z,34.25
2022-10-17T08:34:29.306Z,34.57
2022-10-17T08:36:56.038Z,33.79
2022-10-17T08:39:22.851Z,34.36
2022-10-17T08:41:54.251Z,32.93
2022-10-17T08:44:42.608Z,33.27
2022-10-17T08:47:14.888Z,32.16
2022-10-17T08:50:07.265Z,32.91
2022-10-17T08:52:40.269Z,32.41
2022-10-17T08:55:45.687Z,31.90
2022-10-17T08:58:23.049Z,31.53
2022-10-17T09:01:13.200Z,30.89
2022-10-17T09:03:44.953Z,29.84
2022-10-17T09:06:17.749Z,29.93
2022-10-17T09:08:44.531Z,30.05
2022-10-17T09:11:49.158Z,29.76
2022-10-17T09:14:31.347Z,29.81
2022-10-17T09:16:58.118Z,30.54
2022-10-17T09:20:01.118Z,29.03
2022-10-17T09:22:34.483Z,29.42
2022-10-17T09:25:06.915Z,29.63
2022-10-17T09:27:45.549Z,29.51
2022-10-17T09:30:45.242Z,29.59
2022-10-17T09:33:35.533Z,29.54
2022-10-17T09:36:22.157Z,29.00
2022-10-17T09:38:52.736Z,29.62
2022-10-17T09:41:46.608Z,28.61
2022-10-17T09:44:16.501Z,27.94
2022-10-17T09:46:52.324Z,28.55
2022-10-17T09:49:28.606Z,28.21
2022-10-17T09:51:55.546Z,27.82
2022-10-17T09:54:26.736Z,28.16
2022-10-17T09:57:05.635Z,28.09
2022-10-17T09:59:33.927Z,27.02
2022-10-17T10:02:12.843Z,26.57
2022-10-17T10:05:04.272Z,26.43
2022-10-17T10:07:35.808Z,26.25
2022-10-17T10:10:04.783Z,26.21
2022-10-17T10:12:35.438Z,26.08
2022-10-17T10:15:02.407Z,25.24
2022-10-17T10:17:41.806Z,24.99
2022-10-17T10:20:31.554Z,24.34
2022-10-17T10:23:19.587Z,24.16
2022-10-17T10:26:01.583Z,24.38
2022-10-17T10:28:31.771Z,24.70
2022-10-17T10:31:02.602Z,23.97
2022-10-17T10:33:31.957Z,24.05
2022-10-17T10:36:02.018Z,22.86
2022-10-17T10:38:30.251Z,23.11
2022-10-17T10:41:09.379Z,22.96
2022-10-17T10:43:41.429Z,22.93
2022-10-17T10:46:27.596Z,23.50
2022-10-17T10:48:59.600Z,22.84
2022-10-17T10:51:44.828Z,23.49
2022-10-17T10:54:22.247Z,23.94
2022-10-17T10:56:55.003Z,23.36
2022-10-17T10:59:35.934Z,24.16
2022-10-17T11:02:16.039Z,24.53
2022-10-17T11:04:48.957Z,24.17
2022-10-17T11:07:50.035Z,24.25
2022-10-17T11:10:41.335Z,23.95
2022-10-17T11:13:17.329Z,23.14
2022-10-17T11:16:18.864Z,23.98
2022-10-17T11:19:12.267Z,23.90
2022-10-17T11:21:52.957Z,24.64
2022-10-17T11:24:33.999Z,24.69
2022-10-17T11:27:03.814Z,25.30
2022-10-17T11:29:39.245Z,25.35
2022-10-17T11:32:13.446Z,24.97
2022-10-17T11:34:50.207Z,25.10
2022-10-17T11:37:27.735Z,25.13
2022-10-17T11:40:00.891Z,25.68
2022-10-17T11:42:48.775Z,25.32
2022-10-17T11:45:21.719Z,25.73
2022-10-17T11:48:21.322Z,26.27
2022-10-17T11:53:56.085Z,26.05
2022-10-17T11:56:58.070Z,26.00
2022-10-17T12:00:04.189Z,26.73
2022-10-17T12:02:42.689Z,26.59
2022-10-17T12:05:25.254Z,26.07
2022-10-17T12:08:05.189Z,26.04
2022-10-17T12:11:01.223Z,26.50
2022-10-17T12:13:28.425Z,26.88
2022-10-17T12:16:17.515Z,26.79
2022-10-17T12:18:45.362Z,28.10
2022-10-17T12:21:12.457Z,28.92
2022-10-17T12:23:41.241Z,29.86
2022-10-17T12:26:10.648Z,30.71
2022-10-17T12:28:37.356Z,31.07
2022-10-17T12:31:29.697Z,31.86
2022-10-17T12:34:04.869Z,32.27
2022-10-17T12:36:31.575Z,32.65
2022-10-17T12:39:01.279Z,33.81
2022-10-17T12:41:40.607Z,33.97
2022-10-17T12:44:13.628Z,34.16
2022-10-17T12:46:40.602Z,34.61
2022-10-17T12:49:47.540Z,34.01
2022-10-17T12:52:32.532Z,33.96
2022-10-17T12:55:12.126Z,34.17
2022-10-17T12:57:52.002Z,34.07
2022-10-17T13:00:34.424Z,34.48
2022-10-17T13:03:24.169Z,34.75
2022-10-17T13:05:54.437Z,34.63
2022-10-17T13:08:24.652Z,33.52
2022-10-17T13:10:53.764Z,33.59
2022-10-17T13:13:49.152Z,33.98
2022-10-17T13:16:29.542Z,33.93
2022-10-17T13:18:56.745Z,34.00
2022-10-17T13:21:23.590Z,34.86
2022-10-17T13:23:53.088Z,34.96
2022-10-17T13:26:29.253Z,33.93
2022-10-17T13:29:11.267Z,34.48
2022-10-17T13:31:43.772Z,34.26
2022-10-17T13:34:25.794Z,34.37
2022-10-17T13:36:55.414Z,35.02
2022-10-17T13:39:52.426Z,34.41
2022-10-17T13:42:28.573Z,34.39
2022-10-17T13:44:57.125Z,34.31
2022-10-17T13:47:29.491Z,34.65
2022-10-17T13:49:57.961Z,34.22
2022-10-17T13:52:29.218Z,34.79
2022-10-17T13:55:17.476Z,35.14
2022-10-17T13:57:44.613Z,35.33
2022-10-17T14:00:23.264Z,35.24
2022-10-17T14:02:50.077Z,34.90
2022-10-17T14:05:20.469Z,35.59
2022-10-17T14:08:12.968Z,35.17
2022-10-17T14:10:43.272Z,35.32
2022-10-17T14:13:36.257Z,35.53
2022-10-17T14:16:04.220Z,36.12
2022-10-17T14:18:36.441Z,36.29
2022-10-17T14:21:37.207Z,36.63
2022-10-17T14:24:11.813Z,37.32
2022-10-17T14:26:47.817Z,37.67
2022-10-17T14:29:33.048Z,38.01
2022-10-17T14:32:04.713Z,38.33
2022-10-17T14:34:36.101Z,39.09
2022-10-17T14:37:10.091Z,38.87
2022-10-17T14:39:37.922Z,39.26
2022-10-17T14:42:05.439Z,39.91
2022-10-17T14:44:35.437Z,40.11
2022-10-17T14:47:30.365Z,40.18
2022-10-17T14:50:22.585Z,40.00
2022-10-17T14:53:11.008Z,43.63
2022-10-17T14:55:41.267Z,44.74
2022-10-17T14:58:19.210Z,45.81
2022-10-17T15:00:45.973Z,45.44
2022-10-17T15:03:13.789Z,46.26
2022-10-17T15:05:40.901Z,47.41
2022-10-17T15:08:15.074Z,47.91
2022-10-17T15:10:43.085Z,48.87
2022-10-17T15:13:27.993Z,48.52
2022-10-17T15:15:55.177Z,48.02
2022-10-17T15:18:22.114Z,49.73
2022-10-17T15:20:55.289Z,51.00
2022-10-17T15:23:31.590Z,52.00
2022-10-17T15:25:58.342Z,52.25
2022-10-17T15:28:25.104Z,53.06
2022-10-17T15:30:51.935Z,53.46
2022-10-17T15:33:18.804Z,54.12
2022-10-17T15:35:45.906Z,53.53
2022-10-17T15:38:17.980Z,53.59
2022-10-17T15:40:45.987Z,53.71
2022-10-17T15:43:15.019Z,53.58
2022-10-17T15:45:44.184Z,53.58
2022-10-17T15:48:19.936Z,53.78
2022-10-17T15:50:46.778Z,54.29
2022-10-17T15:53:13.704Z,53.91
2022-10-17T15:55:40.934Z,54.10
2022-10-17T15:58:15.102Z,54.66
2022-10-17T16:00:42.085Z,54.99
2022-10-17T16:03:08.962Z,54.69
2022-10-17T16:05:35.824Z,55.37
2022-10-17T16:08:02.565Z,55.05
2022-10-17T16:10:29.392Z,54.75
2022-10-17T16:12:56.539Z,55.16
2022-10-17T16:15:25.915Z,53.54
2022-10-17T16:17:54.979Z,55.16
2022-10-17T16:20:22.917Z,55.60
2022-10-17T16:22:50.268Z,56.13
2022-10-17T16:25:26.147Z,56.33
2022-10-17T16:27:56.356Z,56.78
2022-10-17T16:30:25.351Z,56.58
2022-10-17T16:32:53.353Z,55.99
2022-10-17T16:35:26.074Z,58.17
2022-10-17T16:37:53.296Z,58.91
2022-10-17T16:40:20.605Z,59.20
2022-10-17T16:42:47.435Z,58.99
2022-10-17T16:45:21.941Z,59.53
2022-10-17T16:47:49.773Z,59.84
2022-10-17T16:50:16.567Z,60.22
2022-10-17T16:52:43.371Z,60.00
2022-10-17T16:55:10.825Z,60.24
2022-10-17T16:57:37.905Z,60.74
2022-10-17T17:00:06.669Z,60.89
2022-10-17T17:02:33.774Z,61.27
2022-10-17T17:05:01.023Z,61.82
2022-10-17T17:07:29.610Z,62.16
2022-10-17T17:09:56.781Z,62.90
2022-10-17T17:12:23.912Z,62.71
2022-10-17T17:14:50.659Z,62.99
2022-10-17T17:17:30.225Z,63.37
2022-10-17T17:20:04.612Z,63.84
2022-10-17T17:22:31.372Z,64.38
2022-10-17T17:24:58.178Z,64.95
2022-10-17T17:27:28.251Z,65.59
2022-10-17T17:29:55.342Z,63.32
2022-10-17T17:32:22.096Z,64.30
2022-10-17T17:34:49.091Z,65.52
2022-10-17T17:37:15.881Z,66.75
2022-10-17T17:39:43.014Z,65.54
2022-10-17T17:42:09.786Z,67.56
2022-10-17T17:44:36.643Z,67.79
2022-10-17T17:47:03.382Z,70.02
2022-10-17T17:49:30.108Z,70.45
2022-10-17T17:51:56.932Z,69.40
2022-10-17T17:54:23.682Z,68.49
2022-10-17T17:56:50.422Z,65.47
2022-10-17T17:59:17.182Z,68.39
2022-10-17T18:01:44.287Z,68.43
2022-10-17T18:04:11.363Z,68.83
2022-10-17T18:06:39.105Z,68.86
2022-10-17T18:09:06.930Z,68.85
2022-10-17T18:11:34.283Z,69.24
2022-10-17T18:14:03.981Z,69.24
2022-10-17T18:16:32.494Z,69.51
2022-10-17T18:19:04.119Z,69.19
2022-10-17T18:21:33.658Z,69.62
2022-10-17T18:24:00.478Z,69.84
2022-10-17T18:26:27.923Z,70.44
2022-10-17T18:28:54.633Z,70.51
2022-10-17T18:31:32.352Z,70.96
2022-10-17T18:34:00.315Z,70.56
2022-10-17T18:36:28.217Z,70.97
2022-10-17T18:38:56.034Z,72.16
2022-10-17T18:41:25.450Z,72.38
2022-10-17T18:43:54.502Z,72.83
2022-10-17T18:46:24.137Z,73.44
2022-10-17T18:48:51.348Z,73.19
2022-10-17T18:51:20.845Z,72.69
2022-10-17T18:53:49.905Z,73.29
2022-10-17T18:56:17.396Z,72.68
2022-10-17T18:58:44.839Z,73.05
2022-10-17T19:01:17.964Z,74.50
2022-10-17T19:03:46.399Z,73.07
2022-10-17T19:06:15.998Z,72.87
2022-10-17T19:08:43.737Z,73.83
2022-10-17T19:11:17.933Z,74.07
2022-10-17T19:16:29.605Z,73.68
2022-10-17T19:18:58.945Z,72.40
2022-10-17T19:21:26.414Z,72.87
2022-10-17T19:23:58.807Z,73.35
2022-10-17T19:26:27.462Z,71.34
2022-10-17T19:28:54.676Z,72.96
2022-10-17T19:31:26.855Z,75.05
2022-10-17T19:33:55.435Z,75.36
2022-10-17T19:36:27.517Z,75.62
2022-10-17T19:38:58.234Z,75.62
2022-10-17T19:41:25.047Z,75.06
2022-10-17T19:43:51.800Z,76.14
2022-10-17T19:46:21.201Z,75.95
2022-10-17T19:48:49.129Z,75.99
2022-10-17T19:51:18.185Z,75.92
2022-10-17T19:53:45.864Z,76.20
2022-10-17T19:56:12.755Z,76.17
2022-10-17T19:58:46.607Z,75.71
2022-10-17T20:01:17.219Z,75.99
2022-10-17T20:03:44.449Z,76.38
2022-10-17T20:06:11.733Z,76.84
2022-10-17T20:08:39.910Z,77.59
2022-10-17T20:11:09.422Z,79.65
2022-10-17T20:13:37.125Z,80.09
2022-10-17T20:16:05.536Z,79.83
2022-10-17T20:18:32.986Z,79.27
2022-10-17T20:21:08.609Z,79.06
2022-10-17T20:23:35.747Z,78.38
2022-10-17T20:26:13.520Z,78.04
2022-10-17T20:28:46.240Z,76.89
2022-10-17T20:31:13.565Z,77.04
2022-10-17T20:33:41.574Z,78.31
2022-10-17T20:36:11.708Z,78.54
2022-10-17T20:38:38.760Z,78.61
2022-10-17T20:41:08.902Z,78.18
2022-10-17T20:43:36.660Z,78.68
2022-10-17T20:46:21.905Z,78.48
2022-10-17T20:48:54.829Z,78.80
2022-10-17T20:51:22.063Z,78.64
2022-10-17T20:53:49.209Z,79.04
2022-10-17T20:56:25.148Z,79.40
2022-10-17T20:58:54.622Z,80.11
2022-10-17T21:01:22.215Z,78.74
2022-10-17T21:03:49.644Z,79.54
2022-10-17T21:06:17.521Z,79.65
2022-10-17T21:08:46.196Z,80.04
2022-10-17T21:11:18.544Z,79.99
2022-10-17T21:13:46.441Z,79.81
2022-10-17T21:16:15.666Z,80.24
2022-10-17T21:18:43.380Z,80.68
2022-10-17T21:21:14.622Z,81.52
2022-10-17T21:23:43.409Z,81.88
2022-10-17T21:26:12.712Z,82.33
2022-10-17T21:28:40.756Z,81.53
2022-10-17T21:31:27.623Z,82.45
2022-10-17T21:33:58.253Z,83.02
2022-10-17T21:36:26.402Z,83.14
2022-10-17T21:38:55.356Z,82.72
2022-10-17T21:41:24.499Z,82.72
2022-10-17T21:44:02.737Z,81.74
2022-10-17T21:46:30.116Z,80.00
2022-10-17T21:48:58.933Z,81.52
2022-10-17T21:51:26.998Z,81.66
2022-10-17T21:53:55.276Z,81.29
2022-10-17T21:56:24.485Z,80.92
2022-10-17T21:58:51.837Z,82.20
2022-10-17T22:01:21.963Z,82.57
2022-10-17T22:03:51.976Z,82.40
2022-10-17T22:09:15.904Z,83.34
2022-10-17T22:11:48.515Z,83.70
2022-10-17T22:14:18.052Z,83.78
2022-10-17T22:16:46.581Z,84.06
2022-10-17T22:19:15.789Z,84.33
2022-10-17T22:21:42.659Z,84.56
2022-10-17T22:24:13.574Z,84.97
2022-10-17T22:26:41.085Z,85.36
2022-10-17T22:29:08.899Z,85.56
2022-10-17T22:31:36.684Z,85.39
2022-10-17T22:34:05.516Z,85.98
2022-10-17T22:36:33.631Z,86.22
2022-10-17T22:39:00.517Z,86.72
2022-10-17T22:41:27.265Z,86.74
2022-10-17T22:43:53.988Z,87.11
2022-10-17T22:46:20.757Z,86.31
2022-10-17T22:48:47.712Z,86.07
2022-10-17T22:51:14.521Z,85.69
2022-10-17T22:53:41.665Z,86.30
2022-10-17T22:56:12.306Z,87.80
2022-10-17T22:58:39.243Z,87.58
2022-10-17T23:01:07.426Z,88.66
2022-10-17T23:03:35.320Z,88.83
2022-10-17T23:06:03.062Z,88.80
2022-10-17T23:08:30.473Z,88.14
2022-10-17T23:10:57.811Z,88.43
2022-10-17T23:13:24.621Z,88.79
2022-10-17T23:15:52.994Z,88.67
2022-10-17T23:18:20.994Z,89.32
2022-10-17T23:20:48.115Z,89.47
2022-10-17T23:23:15.340Z,90.07
2022-10-17T23:25:42.532Z,90.11
2022-10-17T23:28:09.638Z,90.17
2022-10-17T23:30:37.710Z,90.18
2022-10-17T23:33:05.353Z,90.74
2022-10-17T23:35:32.781Z,90.52
2022-10-17T23:37:59.816Z,90.76
2022-10-17T23:40:26.576Z,91.55
2022-10-17T23:42:53.293Z,91.38
2022-10-17T23:45:20.127Z,91.65
2022-10-17T23:47:46.965Z,91.36
2022-10-17T23:50:13.708Z,92.07
2022-10-17T23:52:40.484Z,91.64
2022-10-17T23:55:08.106Z,92.12
2022-10-17T23:57:35.013Z,91.94
